Time,TemperatureF,DewpointF,PressureIn,WindDirection,WindDirectionDegrees,WindSpeedMPH,WindSpeedGustMPH,Humidity,HourlyPrecipIn,Conditions,Clouds,dailyrainin,SoftwareType,DateUTC
2013-02-21 00:11:00,27.0,13.0,29.96,North,351,22.0,26.0,57,0.00,,,0.00,weatherlink.com 1.10,2013-02-21 05:11:00,
2013-02-21 00:26:00,26.8,14.0,29.96,SSE,167,5.0,22.0,58,0.00,,,0.00,weatherlink.com 1.10,2013-02-21 05:26:00,
2013-02-21 00:41:00,26.2,14.0,29.96,WSW,240,5.0,6.0,60,0.00,,,0.00,weatherlink.com 1.10,2013-02-21 05:41:00,
2013-02-21 01:11:00,25.9,14.0,29.97,SW,233,0.0,5.0,62,0.00,,,0.00,weatherlink.com 1.10,2013-02-21 06:11:00,
2013-02-21 01:26:00,25.9,14.0,29.96,East,82,2.0,4.0,62,0.00,,,0.00,weatherlink.com 1.10,2013-02-21 06:26:00,
2013-02-21 01:41:00,26.1,13.0,29.95,NNW,342,8.0,14.0,59,0.00,,,0.00,weatherlink.com 1.10,2013-02-21 06:41:00,
2013-02-21 01:56:00,26.1,13.0,29.95,NNW,344,7.0,10.0,59,0.00,,,0.00,weatherlink.com 1.10,2013-02-21 06:56:00,
2013-02-21 02:11:00,26.0,14.0,29.95,NW,304,1.0,6.0,62,0.00,,,0.00,weatherlink.com 1.10,2013-02-21 07:11:00,
2013-02-21 02:26:00,25.9,14.0,29.96,SW,228,1.0,7.0,62,0.00,,,0.00,weatherlink.com 1.10,2013-02-21 07:26:00,
2013-02-21 02:41:00,25.7,15.0,29.96,SSE,156,0.0,3.0,63,0.00,,,0.00,weatherlink.com 1.10,2013-02-21 07:41:00,
2013-02-21 02:56:00,25.7,14.0,29.96,SE,131,2.0,6.0,62,0.00,,,0.00,weatherlink.com 1.10,2013-02-21 07:56:00,
2013-02-21 03:11:00,26.1,13.0,29.95,North,349,13.0,19.0,58,0.00,,,0.00,weatherlink.com 1.10,2013-02-21 08:11:00,
2013-02-21 03:26:00,26.2,12.0,29.94,NNW,336,28.0,40.0,56,0.00,,,0.00,weatherlink.com 1.10,2013-02-21 08:26:00,
2013-02-21 03:41:00,26.0,12.0,29.94,NNE,30,9.0,27.0,55,0.00,,,0.00,weatherlink.com 1.10,2013-02-21 08:41:00,
2013-02-21 03:56:00,26.1,12.0,29.95,WNW,288,17.0,29.0,55,0.00,,,0.00,weatherlink.com 1.10,2013-02-21 08:56:00,
2013-02-21 04:11:00,26.0,12.0,29.95,WNW,294,4.0,16.0,56,0.00,,,0.00,weatherlink.com 1.10,2013-02-21 09:11:00,
2013-02-21 04:26:00,25.8,14.0,29.96,South,191,3.0,9.0,61,0.00,,,0.00,weatherlink.com 1.10,2013-02-21 09:26:00,
2013-02-21 04:41:00,25.6,13.0,29.96,ESE,122,5.0,6.0,59,0.00,,,0.00,weatherlink.com 1.10,2013-02-21 09:41:00,
2013-02-21 04:56:00,25.9,12.0,29.96,NNW,342,16.0,20.0,55,0.00,,,0.00,weatherlink.com 1.10,2013-02-21 09:56:00,
2013-02-21 05:11:00,26.1,11.0,29.97,NNW,330,6.0,21.0,53,0.00,,,0.00,weatherlink.com 1.10,2013-02-21 10:11:00,
2013-02-21 05:26:00,25.9,10.0,29.97,NNW,336,15.0,29.0,52,0.00,,,0.00,weatherlink.com 1.10,2013-02-21 10:26:00,
2013-02-21 05:41:00,25.8,11.0,29.96,West,273,5.0,21.0,54,0.00,,,0.00,weatherlink.com 1.10,2013-02-21 10:41:00,
2013-02-21 05:56:00,25.6,11.0,29.97,NW,313,8.0,22.0,54,0.00,,,0.00,weatherlink.com 1.10,2013-02-21 10:56:00,
2013-02-21 06:11:00,25.5,10.0,29.97,SW,227,0.0,12.0,53,0.00,,,0.00,weatherlink.com 1.10,2013-02-21 11:11:00,
2013-02-21 06:26:00,25.3,11.0,29.97,WSW,258,2.0,4.0,54,0.00,,,0.00,weatherlink.com 1.10,2013-02-21 11:26:00,
2013-02-21 06:41:00,25.4,10.0,29.97,NNW,342,6.0,12.0,52,0.00,,,0.00,weatherlink.com 1.10,2013-02-21 11:41:00,
2013-02-21 06:56:00,25.7,11.0,29.97,WNW,291,6.0,8.0,53,0.00,,,0.00,weatherlink.com 1.10,2013-02-21 11:56:00,
2013-02-21 07:12:00,25.7,12.0,29.98,North,354,11.0,12.0,56,0.00,,,0.00,weatherlink.com 1.10,2013-02-21 12:12:00,
2013-02-21 07:27:00,26.0,10.0,29.98,WNW,287,14.0,20.0,51,0.00,,,0.00,weatherlink.com 1.10,2013-02-21 12:27:00,
2013-02-21 07:42:00,26.5,10.0,29.98,NNW,333,6.0,20.0,50,0.00,,,0.00,weatherlink.com 1.10,2013-02-21 12:42:00,
2013-02-21 07:58:00,26.4,10.0,29.98,WNW,300,11.0,31.0,51,0.00,,,0.00,weatherlink.com 1.10,2013-02-21 12:58:00,
2013-02-21 08:12:00,26.6,10.0,29.98,NW,311,2.0,25.0,50,0.00,,,0.00,weatherlink.com 1.10,2013-02-21 13:12:00,
2013-02-21 08:27:00,27.2,11.0,29.99,North,359,12.0,24.0,51,0.00,,,0.00,weatherlink.com 1.10,2013-02-21 13:27:00,
2013-02-21 08:42:00,26.8,12.0,29.99,North,349,17.0,24.0,53,0.00,,,0.00,weatherlink.com 1.10,2013-02-21 13:42:00,
2013-02-21 08:57:00,26.6,12.0,29.99,NNW,333,22.0,28.0,54,0.00,,,0.00,weatherlink.com 1.10,2013-02-21 13:57:00,
2013-02-21 09:12:00,26.7,12.0,30.00,NNW,335,20.0,31.0,53,0.00,,,0.00,weatherlink.com 1.10,2013-02-21 14:12:00,
2013-02-21 09:27:00,27.5,11.0,30.00,WNW,300,15.0,25.0,51,0.00,,,0.00,weatherlink.com 1.10,2013-02-21 14:27:00,
2013-02-21 09:42:00,27.5,12.0,30.00,NNW,342,13.0,21.0,53,0.00,,,0.00,weatherlink.com 1.10,2013-02-21 14:42:00,
2013-02-21 09:57:00,27.3,11.0,30.00,NW,324,18.0,27.0,50,0.00,,,0.00,weatherlink.com 1.10,2013-02-21 14:57:00,
2013-02-21 10:12:00,27.2,11.0,30.00,NNW,340,14.0,27.0,51,0.00,,,0.00,weatherlink.com 1.10,2013-02-21 15:12:00,
2013-02-21 10:27:00,27.4,12.0,30.01,NW,315,17.0,31.0,52,0.00,,,0.00,weatherlink.com 1.10,2013-02-21 15:27:00,
2013-02-21 10:42:00,27.4,11.0,30.01,NW,321,26.0,27.0,51,0.00,,,0.00,weatherlink.com 1.10,2013-02-21 15:42:00,
2013-02-21 10:57:00,27.9,12.0,30.02,NW,315,8.0,25.0,52,0.00,,,0.00,weatherlink.com 1.10,2013-02-21 15:57:00,
2013-02-21 11:12:00,27.8,11.0,30.03,NNW,345,23.0,26.0,50,0.00,,,0.00,weatherlink.com 1.10,2013-02-21 16:12:00,
2013-02-21 11:27:00,27.9,12.0,30.04,NW,324,18.0,23.0,52,0.00,,,0.00,weatherlink.com 1.10,2013-02-21 16:27:00,
2013-02-21 11:42:00,28.0,12.0,30.03,NW,320,17.0,27.0,52,0.00,,,0.00,weatherlink.com 1.10,2013-02-21 16:42:00,
2013-02-21 11:57:00,27.9,12.0,30.04,NNW,335,24.0,28.0,51,0.00,,,0.00,weatherlink.com 1.10,2013-02-21 16:57:00,
2013-02-21 12:12:00,27.8,13.0,30.03,NW,324,19.0,27.0,53,0.00,,,0.00,weatherlink.com 1.10,2013-02-21 17:12:00,
2013-02-21 12:27:00,27.9,13.0,30.03,NW,324,22.0,31.0,53,0.00,,,0.00,weatherlink.com 1.10,2013-02-21 17:27:00,
2013-02-21 12:42:00,28.2,12.0,30.03,NW,316,16.0,26.0,51,0.00,,,0.00,weatherlink.com 1.10,2013-02-21 17:42:00,
2013-02-21 12:57:00,28.1,12.0,30.02,NW,323,22.0,27.0,50,0.00,,,0.00,weatherlink.com 1.10,2013-02-21 17:57:00,
2013-02-21 13:12:00,28.0,13.0,30.03,North,1,21.0,22.0,54,0.00,,,0.00,weatherlink.com 1.10,2013-02-21 18:12:00,
2013-02-21 13:27:00,27.5,14.0,30.02,North,360,22.0,25.0,57,0.00,,,0.00,weatherlink.com 1.10,2013-02-21 18:27:00,
2013-02-21 13:42:00,27.9,15.0,30.02,NNE,16,26.0,26.0,59,0.00,,,0.00,weatherlink.com 1.10,2013-02-21 18:42:00,
2013-02-21 13:57:00,28.1,15.0,30.03,NNW,333,14.0,29.0,58,0.00,,,0.00,weatherlink.com 1.10,2013-02-21 18:57:00,
2013-02-21 14:12:00,28.9,14.0,30.04,NNW,338,15.0,24.0,53,0.00,,,0.00,weatherlink.com 1.10,2013-02-21 19:12:00,
2013-02-21 14:27:00,28.8,13.0,30.05,North,354,17.0,23.0,52,0.00,,,0.00,weatherlink.com 1.10,2013-02-21 19:27:00,
2013-02-21 14:42:00,28.6,13.0,30.07,West,278,12.0,23.0,52,0.00,,,0.00,weatherlink.com 1.10,2013-02-21 19:42:00,
2013-02-21 14:57:00,28.3,15.0,30.07,North,3,10.0,21.0,57,0.00,,,0.00,weatherlink.com 1.10,2013-02-21 19:57:00,
2013-02-21 15:13:00,28.2,14.0,30.08,North,360,19.0,23.0,55,0.00,,,0.00,weatherlink.com 1.10,2013-02-21 20:13:00,
2013-02-21 15:28:00,27.4,14.0,30.08,North,1,21.0,22.0,58,0.00,,,0.00,weatherlink.com 1.10,2013-02-21 20:28:00,
2013-02-21 15:43:00,26.8,13.0,30.09,NNE,20,25.0,27.0,57,0.00,,,0.00,weatherlink.com 1.10,2013-02-21 20:43:00,
2013-02-21 15:58:00,26.7,14.0,30.11,NNW,345,21.0,25.0,59,0.00,,,0.00,weatherlink.com 1.10,2013-02-21 20:58:00,
2013-02-21 16:13:00,26.8,14.0,30.12,NNW,340,13.0,23.0,60,0.00,,,0.00,weatherlink.com 1.10,2013-02-21 21:13:00,
2013-02-21 16:28:00,26.8,13.0,30.13,NNW,345,22.0,28.0,56,0.00,,,0.00,weatherlink.com 1.10,2013-02-21 21:28:00,
2013-02-21 16:43:00,26.3,14.0,30.14,NNW,333,22.0,28.0,59,0.00,,,0.00,weatherlink.com 1.10,2013-02-21 21:43:00,
2013-02-21 16:58:00,25.9,14.0,30.15,NNW,339,18.0,27.0,60,0.00,,,0.00,weatherlink.com 1.10,2013-02-21 21:58:00,
2013-02-21 17:13:00,25.7,13.0,30.16,NW,316,12.0,23.0,58,0.00,,,0.00,weatherlink.com 1.10,2013-02-21 22:13:00,
2013-02-21 17:28:00,25.3,13.0,30.17,NNW,342,9.0,16.0,59,0.00,,,0.00,weatherlink.com 1.10,2013-02-21 22:28:00,
2013-02-21 17:43:00,25.1,14.0,30.17,North,353,14.0,17.0,63,0.00,,,0.00,weatherlink.com 1.10,2013-02-21 22:43:00,
2013-02-21 17:58:00,24.8,14.0,30.17,NNW,343,18.0,19.0,63,0.00,,,0.00,weatherlink.com 1.10,2013-02-21 22:58:00,
2013-02-21 18:13:00,24.8,14.0,30.18,North,356,13.0,18.0,64,0.00,,,0.00,weatherlink.com 1.10,2013-02-21 23:13:00,
2013-02-21 18:28:00,24.7,14.0,30.19,NNW,347,10.0,13.0,65,0.00,,,0.00,weatherlink.com 1.10,2013-02-21 23:28:00,
2013-02-21 18:43:00,24.8,14.0,30.20,NNW,346,8.0,15.0,64,0.00,,,0.00,weatherlink.com 1.10,2013-02-21 23:43:00,
2013-02-21 18:58:00,24.9,14.0,30.21,NNW,346,8.0,12.0,64,0.00,,,0.00,weatherlink.com 1.10,2013-02-21 23:58:00,
2013-02-21 19:13:00,24.9,14.0,30.23,NNE,12,12.0,12.0,64,0.00,,,0.00,weatherlink.com 1.10,2013-02-22 00:13:00,
2013-02-21 19:28:00,24.8,15.0,30.23,NNW,347,7.0,15.0,65,0.00,,,0.00,weatherlink.com 1.10,2013-02-22 00:28:00,
2013-02-21 19:43:00,25.1,16.0,30.23,NW,322,15.0,16.0,67,0.00,,,0.00,weatherlink.com 1.10,2013-02-22 00:43:00,
2013-02-21 19:58:00,25.6,16.0,30.25,North,358,15.0,19.0,67,0.00,,,0.00,weatherlink.com 1.10,2013-02-22 00:58:00,
2013-02-21 20:14:00,26.3,17.0,30.27,North,359,16.0,20.0,69,0.00,,,0.00,weatherlink.com 1.10,2013-02-22 01:14:00,
2013-02-21 20:28:00,25.8,16.0,30.28,NNE,18,15.0,16.0,66,0.00,,,0.00,weatherlink.com 1.10,2013-02-22 01:28:00,
2013-02-21 20:43:00,25.9,16.0,30.28,North,4,17.0,18.0,65,0.00,,,0.00,weatherlink.com 1.10,2013-02-22 01:43:00,
2013-02-21 20:58:00,25.7,16.0,30.30,North,354,15.0,19.0,66,0.00,,,0.00,weatherlink.com 1.10,2013-02-22 01:58:00,
2013-02-21 21:13:00,25.1,15.0,30.31,North,350,6.0,10.0,65,0.00,,,0.00,weatherlink.com 1.10,2013-02-22 02:13:00,
2013-02-21 21:29:00,25.4,15.0,30.33,North,356,6.0,12.0,65,0.00,,,0.00,weatherlink.com 1.10,2013-02-22 02:29:00,
2013-02-21 21:44:00,25.4,16.0,30.33,West,262,2.0,6.0,67,0.00,,,0.00,weatherlink.com 1.10,2013-02-22 02:44:00,
2013-02-21 21:59:00,25.1,16.0,30.33,WSW,249,3.0,9.0,69,0.00,,,0.00,weatherlink.com 1.10,2013-02-22 02:59:00,
2013-02-21 22:14:00,25.1,16.0,30.36,East,101,2.0,7.0,68,0.00,,,0.00,weatherlink.com 1.10,2013-02-22 03:14:00,
2013-02-21 22:29:00,25.2,16.0,30.35,East,87,3.0,4.0,68,0.00,,,0.00,weatherlink.com 1.10,2013-02-22 03:29:00,
2013-02-21 22:44:00,25.3,16.0,30.35,NE,48,5.0,5.0,68,0.00,,,0.00,weatherlink.com 1.10,2013-02-22 03:44:00,
2013-02-21 22:59:00,25.5,16.0,30.36,NE,36,8.0,8.0,67,0.00,,,0.00,weatherlink.com 1.10,2013-02-22 03:59:00,
2013-02-21 23:14:00,25.6,16.0,30.35,NE,45,10.0,12.0,68,0.00,,,0.00,weatherlink.com 1.10,2013-02-22 04:14:00,
2013-02-21 23:29:00,25.5,17.0,30.36,NE,43,12.0,13.0,69,0.00,,,0.00,weatherlink.com 1.10,2013-02-22 04:29:00,
2013-02-21 23:44:00,25.3,17.0,30.37,NNE,22,17.0,23.0,70,0.00,,,0.00,weatherlink.com 1.10,2013-02-22 04:44:00,
2013-02-21 23:59:00,25.2,17.0,30.37,NNE,13,19.0,23.0,71,0.00,,,0.00,weatherlink.com 1.10,2013-02-22 04:59:00,